createdAt,value
2023-02-02T00:35:44.713Z,3.85
2023-02-02T00:42:36.827Z,4.32
2023-02-02T00:45:39.953Z,4.15
2023-02-02T00:48:56.590Z,4.13
2023-02-02T00:52:01.400Z,3.90
2023-02-02T00:55:03.730Z,5.05
2023-02-02T00:58:06.892Z,4.28
2023-02-02T01:05:06.981Z,3.60
2023-02-02T01:12:01.547Z,3.55
2023-02-02T01:15:37.668Z,3.47
2023-02-02T01:19:19.755Z,3.80
2023-02-02T01:29:38.979Z,3.85
2023-02-02T01:32:48.449Z,3.20
2023-02-02T01:39:13.065Z,3.97
2023-02-02T01:45:43.029Z,3.20
2023-02-02T01:49:33.929Z,3.35
2023-02-02T01:52:55.603Z,3.35
2023-02-02T01:56:29.147Z,3.33
2023-02-02T01:59:59.690Z,3.03
2023-02-02T02:03:42.989Z,3.15
2023-02-02T02:10:18.238Z,2.90
2023-02-02T02:13:39.789Z,3.28
2023-02-02T02:17:07.795Z,3.85
2023-02-02T02:20:38.550Z,3.33
2023-02-02T02:24:16.981Z,3.50
2023-02-02T02:28:03.398Z,4.18
2023-02-02T02:31:52.696Z,3.60
2023-02-02T02:35:39.011Z,3.67
2023-02-02T02:39:05.344Z,3.70
2023-02-02T02:42:20.224Z,3.28
2023-02-02T02:45:24.321Z,3.33
2023-02-02T02:48:35.213Z,3.45
2023-02-02T02:51:43.738Z,3.78
2023-02-02T02:55:19.443Z,4.00
2023-02-02T02:58:40.374Z,3.35
2023-02-02T03:02:10.559Z,4.10
2023-02-02T03:05:57.150Z,3.95
2023-02-02T03:09:44.071Z,3.35
2023-02-02T03:20:34.837Z,3.47
2023-02-02T03:23:50.463Z,2.90
2023-02-02T03:39:26.930Z,3.92
2023-02-02T03:43:55.369Z,3.70
2023-02-02T03:47:42.181Z,2.90
2023-02-02T03:51:16.225Z,3.13
2023-02-02T03:58:40.541Z,3.13
2023-02-02T04:02:08.709Z,3.25
2023-02-02T04:20:44.130Z,3.72
2023-02-02T04:27:50.134Z,3.78
2023-02-02T04:38:26.603Z,2.63
2023-02-02T04:42:41.824Z,3.42
2023-02-02T05:24:54.377Z,3.42
2023-02-02T05:27:56.702Z,3.22
2023-02-02T05:30:59.017Z,4.13
2023-02-02T05:34:01.225Z,2.75
2023-02-02T05:43:48.105Z,3.85
2023-02-02T05:46:52.348Z,3.67
2023-02-02T16:51:19.024Z,1.83
2023-02-02T18:26:11.118Z,3.65
2023-02-02T18:29:47.631Z,3.22
2023-02-02T18:32:52.372Z,3.42
2023-02-02T18:39:22.491Z,3.90
2023-02-02T18:42:32.618Z,4.25
2023-02-02T18:45:47.293Z,4.47
2023-02-02T18:48:51.579Z,4.32
2023-02-02T18:51:53.825Z,4.50
2023-02-02T18:54:58.295Z,4.22
2023-02-02T18:58:02.536Z,4.47
2023-02-02T19:01:17.079Z,3.85
2023-02-02T19:08:03.485Z,4.18
2023-02-02T19:11:17.492Z,3.78
2023-02-02T19:18:10.901Z,3.87
2023-02-02T19:21:15.325Z,4.10
2023-02-02T19:24:17.370Z,4.07
2023-02-02T19:27:22.516Z,3.78
2023-02-02T19:30:27.367Z,4.70
2023-02-02T19:33:51.096Z,3.80
2023-02-02T19:37:02.811Z,4.00
2023-02-02T19:40:10.999Z,4.28
2023-02-02T19:43:13.680Z,3.75
2023-02-02T19:46:23.780Z,4.03
2023-02-02T19:50:01.476Z,3.95
2023-02-02T19:53:18.117Z,4.63
2023-02-02T20:00:00.064Z,5.13
2023-02-02T20:03:27.739Z,4.57
2023-02-02T20:09:50.393Z,4.90
2023-02-02T20:12:55.649Z,5.38
2023-02-02T20:16:43.716Z,5.45
2023-02-02T20:20:00.581Z,5.30
2023-02-02T20:23:20.957Z,5.25
2023-02-02T20:26:44.124Z,6.50
2023-02-02T20:29:48.515Z,6.70
2023-02-02T20:33:03.192Z,6.40
2023-02-02T20:36:58.935Z,6.43
2023-02-02T20:43:26.539Z,6.47
2023-02-02T20:46:31.691Z,6.18
2023-02-02T20:49:37.246Z,5.93
2023-02-02T20:52:42.555Z,6.75
2023-02-02T20:55:45.120Z,5.82
2023-02-02T20:58:47.143Z,6.07
2023-02-02T21:02:01.039Z,5.20
2023-02-02T21:05:06.277Z,5.65
2023-02-02T21:08:11.817Z,5.65
2023-02-02T21:11:21.742Z,5.22
2023-02-02T21:14:31.466Z,5.85
2023-02-02T21:17:33.690Z,5.50
2023-02-02T21:20:35.899Z,5.10
2023-02-02T21:23:39.666Z,6.18
2023-02-02T21:26:52.615Z,5.07
2023-02-02T21:29:54.801Z,5.60
2023-02-02T21:32:59.848Z,5.50
2023-02-02T21:36:22.424Z,6.32
2023-02-02T21:39:32.389Z,5.32
2023-02-02T21:42:35.708Z,5.70
2023-02-02T21:48:42.346Z,5.70
2023-02-02T21:51:47.256Z,5.07
2023-02-02T21:54:54.000Z,5.18
2023-02-02T21:57:58.868Z,4.85
2023-02-02T22:01:22.075Z,5.10
2023-02-02T22:04:27.636Z,4.88
2023-02-02T22:07:53.617Z,4.97
2023-02-02T22:11:59.642Z,4.25
2023-02-02T23:14:40.795Z,4.15
2023-02-02T23:29:40.608Z,3.20
2023-02-02T23:37:43.339Z,4.18
